createdAt,value
2018-12-07T00:00:16.666Z,100415.38
2018-12-07T00:02:43.028Z,100412.66
2018-12-07T00:05:09.001Z,100411.33
2018-12-07T00:07:35.060Z,100410.70
2018-12-07T00:10:01.056Z,100405.75
2018-12-07T00:12:27.052Z,100404.29
2018-12-07T00:14:53.018Z,100403.95
2018-12-07T00:17:19.098Z,100399.11
2018-12-07T00:19:48.130Z,100393.52
2018-12-07T00:22:13.214Z,100394.14
2018-12-07T00:24:39.288Z,100392.36
2018-12-07T00:27:05.397Z,100388.38
2018-12-07T00:29:31.537Z,100384.27
2018-12-07T00:31:57.655Z,100379.75
2018-12-07T00:34:23.860Z,100376.28
2018-12-07T00:36:49.967Z,100366.06
2018-12-07T00:39:16.156Z,100363.19
2018-12-07T00:41:42.230Z,100356.02
2018-12-07T00:44:08.206Z,100357.53
2018-12-07T00:46:34.299Z,100358.66
2018-12-07T00:49:00.792Z,100357.14
2018-12-07T00:51:26.766Z,100355.09
2018-12-07T00:53:52.776Z,100365.43
2018-12-07T00:56:18.787Z,100356.58
2018-12-07T00:58:45.293Z,100345.22
2018-12-07T01:01:11.381Z,100339.94
2018-12-07T01:03:37.519Z,100332.55
2018-12-07T01:06:03.517Z,100339.05
2018-12-07T01:08:29.513Z,100342.56
2018-12-07T01:10:55.489Z,100352.37
2018-12-07T01:13:21.566Z,100354.66
2018-12-07T01:15:47.527Z,100350.27
2018-12-07T01:18:13.518Z,100342.77
2018-12-07T01:20:39.481Z,100345.40
2018-12-07T01:23:05.493Z,100338.59
2018-12-07T01:25:31.448Z,100340.87
2018-12-07T01:27:57.447Z,100333.28
2018-12-07T01:30:23.445Z,100336.25
2018-12-07T01:32:49.439Z,100339.31
2018-12-07T01:35:15.403Z,100330.81
2018-12-07T01:37:41.396Z,100322.86
2018-12-07T01:40:07.369Z,100322.88
2018-12-07T01:42:33.363Z,100319.43
2018-12-07T01:44:59.309Z,100311.97
2018-12-07T01:47:25.303Z,100309.80
2018-12-07T01:49:51.286Z,100306.10
2018-12-07T01:52:17.289Z,100306.67
2018-12-07T01:54:43.249Z,100307.98
2018-12-07T01:57:09.206Z,100303.62
2018-12-07T01:59:35.168Z,100294.23
2018-12-07T02:02:01.176Z,100297.45
2018-12-07T02:04:27.201Z,100285.14
2018-12-07T02:06:53.279Z,100281.56
2018-12-07T02:09:19.282Z,100278.98
2018-12-07T02:11:45.298Z,100274.33
2018-12-07T02:14:11.298Z,100277.75
2018-12-07T02:16:37.819Z,100272.27
2018-12-07T02:19:04.360Z,100268.47
2018-12-07T02:21:30.426Z,100259.33
2018-12-07T02:23:56.409Z,100258.06
2018-12-07T02:26:22.495Z,100253.70
2018-12-07T02:28:48.632Z,100251.60
2018-12-07T02:31:14.696Z,100248.02
2018-12-07T02:33:40.625Z,100243.64
2018-12-07T02:36:06.632Z,100239.49
2018-12-07T02:38:32.589Z,100244.22
2018-12-07T02:40:58.526Z,100237.69
2018-12-07T02:43:24.538Z,100237.77
2018-12-07T02:45:50.464Z,100239.00
2018-12-07T02:48:16.409Z,100229.63
2018-12-07T02:50:42.505Z,100222.99
2018-12-07T02:53:08.491Z,100219.55
2018-12-07T02:55:34.496Z,100222.58
2018-12-07T02:58:00.489Z,100219.31
2018-12-07T03:00:26.421Z,100217.70
2018-12-07T03:02:52.385Z,100213.50
2018-12-07T03:05:18.386Z,100212.20
2018-12-07T03:07:44.327Z,100211.06
2018-12-07T03:10:10.320Z,100208.33
2018-12-07T03:12:36.291Z,100210.87
2018-12-07T03:15:03.091Z,100208.49
2018-12-07T03:17:29.087Z,100207.93
2018-12-07T03:19:55.064Z,100203.53
2018-12-07T03:22:21.082Z,100200.65
2018-12-07T03:24:47.091Z,100196.66
2018-12-07T03:27:13.082Z,100197.77
2018-12-07T03:29:39.083Z,100194.16
2018-12-07T03:32:05.102Z,100200.20
2018-12-07T03:34:31.129Z,100195.63
2018-12-07T03:36:57.126Z,100189.98
2018-12-07T03:39:23.187Z,100183.90
2018-12-07T03:41:49.204Z,100177.92
2018-12-07T03:44:15.179Z,100180.28
2018-12-07T03:46:41.176Z,100183.23
2018-12-07T03:49:07.659Z,100184.50
2018-12-07T03:51:33.679Z,100177.42
2018-12-07T03:53:59.745Z,100181.71
2018-12-07T03:56:25.747Z,100178.47
2018-12-07T03:58:58.707Z,100169.94
2018-12-07T04:01:24.727Z,100169.90
2018-12-07T04:03:50.948Z,100166.35
2018-12-07T04:06:16.986Z,100177.15
2018-12-07T04:08:49.968Z,100171.26
2018-12-07T04:11:15.964Z,100180.19
2018-12-07T04:13:41.930Z,100167.88
2018-12-07T04:16:07.934Z,100171.02
2018-12-07T04:18:33.901Z,100173.60
2018-12-07T04:20:59.948Z,100162.37
2018-12-07T04:23:25.958Z,100163.12
2018-12-07T04:25:51.995Z,100166.97
2018-12-07T04:28:18.074Z,100172.19
2018-12-07T04:30:44.083Z,100170.33
2018-12-07T04:33:10.728Z,100169.98
2018-12-07T04:35:41.618Z,100164.69
2018-12-07T04:38:07.781Z,100160.06
2018-12-07T04:40:33.759Z,100152.47
2018-12-07T04:42:59.733Z,100155.09
2018-12-07T04:45:25.741Z,100156.90
2018-12-07T04:47:51.731Z,100159.09
2018-12-07T04:50:17.747Z,100153.15
2018-12-07T04:52:43.719Z,100153.46
2018-12-07T04:55:09.712Z,100149.27
2018-12-07T04:57:35.790Z,100142.98
2018-12-07T05:00:01.919Z,100143.34
2018-12-07T05:02:27.940Z,100146.50
2018-12-07T05:04:53.979Z,100147.62
2018-12-07T05:07:19.954Z,100143.59
2018-12-07T05:09:47.029Z,100149.69
2018-12-07T05:14:45.767Z,100142.44
2018-12-07T05:17:11.760Z,100144.77
2018-12-07T05:19:37.780Z,100144.64
2018-12-07T05:22:03.797Z,100133.59
2018-12-07T05:24:29.843Z,100129.50
2018-12-07T05:26:55.897Z,100132.92
2018-12-07T05:29:21.822Z,100133.38
2018-12-07T05:31:47.878Z,100136.22
2018-12-07T05:34:13.851Z,100135.08
2018-12-07T05:36:39.851Z,100135.02
2018-12-07T05:39:05.829Z,100127.52
2018-12-07T05:41:31.823Z,100116.39
2018-12-07T05:43:57.848Z,100120.25
2018-12-07T05:46:23.821Z,100122.49
2018-12-07T05:48:49.849Z,100117.74
2018-12-07T05:51:15.833Z,100118.47
2018-12-07T05:53:41.823Z,100125.05
2018-12-07T05:56:07.777Z,100116.23
2018-12-07T05:58:33.767Z,100112.34
2018-12-07T06:00:59.741Z,100110.18
2018-12-07T06:03:25.770Z,100113.27
2018-12-07T06:05:51.775Z,100106.80
2018-12-07T06:08:17.734Z,100108.05
2018-12-07T06:10:43.743Z,100109.47
2018-12-07T06:13:09.744Z,100105.20
2018-12-07T06:15:35.766Z,100098.16
2018-12-07T06:18:01.735Z,100098.34
2018-12-07T06:20:27.730Z,100095.91
2018-12-07T06:22:53.727Z,100096.30
2018-12-07T06:25:19.713Z,100101.59
2018-12-07T06:27:45.667Z,100099.41
2018-12-07T06:30:11.701Z,100093.53
2018-12-07T06:32:37.718Z,100090.29
2018-12-07T06:35:03.692Z,100087.87
2018-12-07T06:37:29.680Z,100076.64
2018-12-07T06:39:55.650Z,100078.53
2018-12-07T06:42:21.673Z,100076.42
2018-12-07T06:44:47.639Z,100071.17
2018-12-07T06:47:13.621Z,100068.91
2018-12-07T06:49:39.603Z,100070.31
2018-12-07T06:52:05.581Z,100073.55
2018-12-07T06:54:31.639Z,100078.98
2018-12-07T06:56:57.659Z,100063.55
2018-12-07T06:59:23.663Z,100060.25
2018-12-07T07:01:49.692Z,100061.27
2018-12-07T07:04:15.699Z,100068.84
2018-12-07T07:06:41.679Z,100060.61
2018-12-07T07:09:07.753Z,100060.88
2018-12-07T07:11:34.052Z,100052.09
2018-12-07T07:14:00.034Z,100050.64
2018-12-07T07:16:26.004Z,100047.10
2018-12-07T07:18:52.022Z,100036.72
2018-12-07T07:21:18.019Z,100040.00
2018-12-07T07:23:44.064Z,100045.12
2018-12-07T07:26:10.028Z,100037.78
2018-12-07T07:28:43.001Z,100037.94
2018-12-07T07:31:08.978Z,100029.34
2018-12-07T07:33:34.991Z,100036.94
2018-12-07T07:36:01.100Z,100041.88
2018-12-07T07:38:34.122Z,100033.96
2018-12-07T07:41:00.088Z,100032.56
2018-12-07T07:43:26.072Z,100026.09
2018-12-07T07:45:52.044Z,100017.80
2018-12-07T07:48:18.057Z,100015.20
2018-12-07T07:50:44.046Z,100013.87
2018-12-07T07:53:10.038Z,100013.56
2018-12-07T07:55:36.084Z,100008.72
2018-12-07T07:58:02.153Z,100002.22
2018-12-07T08:00:28.108Z,99996.34
2018-12-07T08:02:54.202Z,99993.47
2018-12-07T08:05:20.190Z,99999.13
2018-12-07T08:07:46.177Z,99994.77
2018-12-07T08:10:12.180Z,99990.91
2018-12-07T08:12:38.202Z,99990.66
2018-12-07T08:15:04.253Z,99990.56
2018-12-07T08:17:30.173Z,99988.55
2018-12-07T08:19:56.129Z,99985.30
2018-12-07T08:22:22.235Z,99973.85
2018-12-07T08:24:48.208Z,99975.41
2018-12-07T08:27:14.282Z,99964.23
2018-12-07T08:29:40.255Z,99972.98
2018-12-07T08:32:06.233Z,99970.54
2018-12-07T08:34:32.170Z,99973.98
2018-12-07T08:36:58.113Z,99960.91
2018-12-07T08:39:24.119Z,99964.92
2018-12-07T08:41:50.045Z,99955.42
2018-12-07T08:44:16.064Z,99955.75
2018-12-07T08:46:42.168Z,99961.77
2018-12-07T08:49:08.189Z,99958.13
2018-12-07T08:51:34.176Z,99952.05
2018-12-07T08:54:00.167Z,99944.85
2018-12-07T08:56:26.232Z,99945.95
2018-12-07T08:58:52.295Z,99935.06
2018-12-07T09:01:18.393Z,99930.13
2018-12-07T09:03:44.440Z,99926.23
2018-12-07T09:06:10.471Z,99932.13
2018-12-07T09:08:36.508Z,99927.60
2018-12-07T09:11:02.574Z,99933.63
2018-12-07T09:13:28.583Z,99923.38
2018-12-07T09:15:54.565Z,99919.94
2018-12-07T09:18:20.643Z,99917.78
2018-12-07T09:20:53.705Z,99911.55
2018-12-07T09:23:14.684Z,99913.14
2018-12-07T09:25:40.739Z,99903.77
2018-12-07T09:28:06.767Z,99904.30
2018-12-07T09:30:32.734Z,99885.48
2018-12-07T09:32:58.879Z,99886.83
2018-12-07T09:35:24.884Z,99887.63
2018-12-07T09:37:50.912Z,99874.86
2018-12-07T09:40:16.894Z,99880.47
2018-12-07T09:42:42.981Z,99871.55
2018-12-07T09:45:08.967Z,99867.34
2018-12-07T09:47:35.005Z,99869.31
2018-12-07T09:50:00.973Z,99860.09
2018-12-07T09:52:26.978Z,99854.89
2018-12-07T09:54:58.145Z,99858.68
2018-12-07T09:57:24.450Z,99850.20
2018-12-07T09:59:50.471Z,99845.73
2018-12-07T10:02:16.458Z,99844.56
2018-12-07T10:04:42.506Z,99838.28
2018-12-07T10:07:08.495Z,99831.31
2018-12-07T10:09:34.643Z,99830.80
2018-12-07T10:12:00.739Z,99822.61
2018-12-07T10:14:26.748Z,99814.25
2018-12-07T10:16:52.741Z,99809.32
2018-12-07T10:19:18.733Z,99809.55
2018-12-07T10:21:44.738Z,99807.73
2018-12-07T10:24:11.445Z,99803.08
2018-12-07T10:26:37.439Z,99798.70
2018-12-07T10:29:03.431Z,99800.10
2018-12-07T10:31:29.434Z,99790.06
2018-12-07T10:33:55.441Z,99787.05
2018-12-07T10:36:21.451Z,99786.71
2018-12-07T10:38:47.427Z,99781.17
2018-12-07T10:41:13.438Z,99781.77
2018-12-07T10:43:39.450Z,99774.30
2018-12-07T10:46:05.411Z,99774.77
2018-12-07T10:48:31.424Z,99773.45
2018-12-07T10:50:57.397Z,99763.16
2018-12-07T10:53:23.490Z,99747.73
2018-12-07T10:55:49.452Z,99749.61
2018-12-07T10:58:15.460Z,99738.72
2018-12-07T11:00:47.498Z,99725.09
2018-12-07T11:03:19.709Z,99732.53
2018-12-07T11:05:51.863Z,99717.73
2018-12-07T11:08:24.012Z,99717.19
2018-12-07T11:10:55.388Z,99712.88
2018-12-07T11:13:27.518Z,99702.32
2018-12-07T11:15:59.480Z,99699.06
2018-12-07T11:21:33.987Z,99684.31
2018-12-07T11:24:06.015Z,99686.84
2018-12-07T11:26:38.225Z,99671.94
2018-12-07T11:29:10.443Z,99680.67
2018-12-07T11:31:40.267Z,99659.52
2018-12-07T11:34:06.290Z,99656.59
2018-12-07T11:36:32.285Z,99650.57
2018-12-07T11:38:58.280Z,99653.75
2018-12-07T11:41:24.266Z,99641.09
2018-12-07T11:43:50.221Z,99641.24
2018-12-07T11:46:16.238Z,99634.72
2018-12-07T11:48:42.340Z,99621.46
2018-12-07T11:51:08.374Z,99625.75
2018-12-07T11:53:34.336Z,99613.05
2018-12-07T11:56:00.343Z,99605.18
2018-12-07T11:58:26.319Z,99602.75
2018-12-07T12:00:52.344Z,99586.83
2018-12-07T12:03:18.369Z,99584.99
2018-12-07T12:05:44.436Z,99574.52
2018-12-07T12:08:10.418Z,99561.95
2018-12-07T12:10:36.434Z,99553.77
2018-12-07T12:13:02.420Z,99548.60
2018-12-07T12:15:28.408Z,99543.83
2018-12-07T12:17:54.390Z,99545.95
2018-12-07T12:20:20.401Z,99531.82
2018-12-07T12:22:46.449Z,99538.57
2018-12-07T12:25:12.483Z,99529.39
2018-12-07T12:27:38.471Z,99526.02
2018-12-07T12:30:05.928Z,99522.61
2018-12-07T12:32:32.017Z,99501.98
2018-12-07T12:34:57.953Z,99501.44
2018-12-07T12:37:23.975Z,99499.84
2018-12-07T12:39:49.939Z,99491.11
2018-12-07T12:42:15.967Z,99477.24
2018-12-07T12:44:41.949Z,99481.02
2018-12-07T12:47:08.022Z,99471.20
2018-12-07T12:49:34.037Z,99468.77
2018-12-07T12:52:00.052Z,99475.73
2018-12-07T12:54:26.026Z,99463.11
2018-12-07T12:56:52.097Z,99459.35
2018-12-07T12:59:18.072Z,99456.50
2018-12-07T13:01:44.266Z,99455.23
2018-12-07T13:04:10.306Z,99456.53
2018-12-07T13:06:36.320Z,99437.05
2018-12-07T13:09:04.965Z,99437.62
2018-12-07T13:11:31.006Z,99432.74
2018-12-07T13:13:56.988Z,99429.59
2018-12-07T13:16:22.972Z,99432.55
2018-12-07T13:18:48.930Z,99422.73
2018-12-07T13:21:15.061Z,99423.59
2018-12-07T13:23:41.084Z,99409.59
2018-12-07T13:26:07.175Z,99409.34
2018-12-07T13:28:33.199Z,99411.86
2018-12-07T13:30:59.176Z,99407.94
2018-12-07T13:33:25.179Z,99403.34
2018-12-07T13:35:51.201Z,99389.40
2018-12-07T13:38:17.176Z,99387.38
2018-12-07T13:40:43.226Z,99380.73
2018-12-07T13:43:09.327Z,99380.95
2018-12-07T13:45:35.450Z,99375.80
2018-12-07T13:48:01.585Z,99360.66
2018-12-07T13:50:33.950Z,99354.48
2018-12-07T13:53:00.142Z,99342.17
2018-12-07T13:55:26.237Z,99341.30
2018-12-07T13:57:52.386Z,99344.47
2018-12-07T14:00:18.530Z,99335.95
2018-12-07T14:02:44.732Z,99332.68
2018-12-07T14:05:10.757Z,99322.03
2018-12-07T14:07:36.896Z,99323.75
2018-12-07T14:10:04.328Z,99322.52
2018-12-07T14:12:30.497Z,99314.56
2018-12-07T14:14:56.640Z,99299.36
2018-12-07T14:17:22.894Z,99288.66
2018-12-07T14:19:49.082Z,99286.84
2018-12-07T14:22:15.461Z,99280.33
2018-12-07T14:24:41.737Z,99286.00
2018-12-07T14:27:08.069Z,99278.64
2018-12-07T14:29:34.261Z,99263.31
2018-12-07T14:32:00.653Z,99276.95
2018-12-07T14:34:26.889Z,99276.46
2018-12-07T14:36:53.036Z,99265.02
2018-12-07T14:39:19.244Z,99254.86
2018-12-07T14:41:45.486Z,99253.09
2018-12-07T14:44:11.756Z,99259.94
2018-12-07T14:46:37.863Z,99249.56
2018-12-07T14:49:04.085Z,99247.98
2018-12-07T14:51:30.358Z,99247.99
2018-12-07T14:53:56.711Z,99238.45
2018-12-07T14:56:22.831Z,99248.95
2018-12-07T14:58:49.026Z,99253.75
2018-12-07T15:01:15.216Z,99234.98
2018-12-07T15:03:41.405Z,99219.19
2018-12-07T15:06:07.532Z,99197.75
2018-12-07T15:08:33.698Z,99195.81
2018-12-07T15:10:59.840Z,99191.47
2018-12-07T15:13:26.057Z,99191.95
2018-12-07T15:15:52.423Z,99192.56
2018-12-07T15:18:18.828Z,99179.43
2018-12-07T15:20:45.089Z,99167.05
2018-12-07T15:23:11.357Z,99158.56
2018-12-07T15:25:37.487Z,99157.23
2018-12-07T15:28:03.922Z,99161.45
2018-12-07T15:30:30.298Z,99160.31
2018-12-07T15:32:56.488Z,99160.14
2018-12-07T15:35:22.679Z,99157.45
2018-12-07T15:37:48.968Z,99159.42
2018-12-07T15:40:15.201Z,99151.10
2018-12-07T15:42:42.201Z,99160.98
2018-12-07T15:45:08.245Z,99148.50
2018-12-07T15:47:34.457Z,99137.20
2018-12-07T15:50:00.727Z,99129.86
2018-12-07T15:52:26.972Z,99136.20
2018-12-07T15:54:53.274Z,99123.09
2018-12-07T15:57:19.591Z,99113.87
2018-12-07T15:59:45.702Z,99115.98
2018-12-07T16:02:11.834Z,99100.05
2018-12-07T16:04:37.877Z,99109.16
2018-12-07T16:07:03.994Z,99095.31
2018-12-07T16:09:30.411Z,99095.53
2018-12-07T16:11:56.835Z,99100.71
2018-12-07T16:14:23.362Z,99088.40
2018-12-07T16:16:49.561Z,99083.25
2018-12-07T16:19:15.758Z,99079.17
2018-12-07T16:21:41.969Z,99084.57
2018-12-07T16:24:08.663Z,99087.22
2018-12-07T16:26:34.732Z,99067.76
2018-12-07T16:29:00.901Z,99063.88
2018-12-07T16:31:27.058Z,99058.58
2018-12-07T16:33:53.119Z,99056.39
2018-12-07T16:36:19.491Z,99057.96
2018-12-07T16:38:45.734Z,99050.45
2018-12-07T16:41:12.010Z,99038.92
2018-12-07T16:43:38.179Z,99039.88
2018-12-07T16:46:04.466Z,99035.17
2018-12-07T16:48:30.523Z,99036.80
2018-12-07T16:50:56.614Z,99045.44
2018-12-07T16:53:22.653Z,99037.12
2018-12-07T16:55:48.687Z,99039.03
2018-12-07T16:58:14.849Z,99028.81
2018-12-07T17:00:41.187Z,99024.33
2018-12-07T17:03:08.091Z,99034.81
2018-12-07T17:05:34.370Z,99049.27
2018-12-07T17:08:00.784Z,99043.63
2018-12-07T17:10:26.946Z,99036.85
2018-12-07T17:12:53.299Z,99022.86
2018-12-07T17:15:19.719Z,99028.89
2018-12-07T17:17:45.966Z,99026.83
2018-12-07T17:20:11.954Z,99022.78
2018-12-07T17:22:38.035Z,99022.42
2018-12-07T17:25:04.402Z,99018.28
2018-12-07T17:27:30.695Z,99013.30
2018-12-07T17:29:56.752Z,99000.91
2018-12-07T17:32:23.088Z,98991.44
2018-12-07T17:34:49.243Z,98995.30
2018-12-07T17:37:15.566Z,98984.73
2018-12-07T17:39:41.763Z,98980.84
2018-12-07T17:42:07.957Z,98965.27
2018-12-07T17:44:34.145Z,98961.30
2018-12-07T17:47:00.356Z,98954.03
2018-12-07T17:49:26.480Z,98939.34
2018-12-07T17:51:52.487Z,98931.91
2018-12-07T17:54:18.804Z,98925.25
2018-12-07T17:56:44.981Z,98936.20
2018-12-07T17:59:11.404Z,98940.64
2018-12-07T18:01:37.458Z,98943.20
2018-12-07T18:04:03.497Z,98934.55
2018-12-07T18:06:30.669Z,98932.27
2018-12-07T18:08:57.219Z,98918.39
2018-12-07T18:11:23.252Z,98906.57
2018-12-07T18:13:49.350Z,98905.18
2018-12-07T18:16:15.445Z,98900.45
2018-12-07T18:18:41.604Z,98903.98
2018-12-07T18:21:07.740Z,98895.87
2018-12-07T18:23:33.866Z,98887.64
2018-12-07T18:26:00.138Z,98894.71
2018-12-07T18:28:26.297Z,98881.11
2018-12-07T18:30:52.457Z,98873.80
2018-12-07T18:33:18.521Z,98867.17
2018-12-07T18:35:44.672Z,98867.43
2018-12-07T18:38:10.914Z,98867.83
2018-12-07T18:40:37.073Z,98850.89
2018-12-07T18:43:03.184Z,98857.12
2018-12-07T18:45:29.325Z,98858.08
2018-12-07T18:47:55.597Z,98858.17
2018-12-07T18:50:21.870Z,98840.41
2018-12-07T18:52:48.220Z,98837.94
2018-12-07T18:55:14.570Z,98832.53
2018-12-07T18:57:40.716Z,98827.52
2018-12-07T19:00:07.605Z,98825.21
2018-12-07T19:02:34.131Z,98817.55
2018-12-07T19:05:00.432Z,98821.83
2018-12-07T19:07:27.430Z,98822.86
2018-12-07T19:09:53.614Z,98815.05
2018-12-07T19:12:19.793Z,98812.15
2018-12-07T19:14:45.876Z,98805.28
2018-12-07T19:17:12.087Z,98818.98
2018-12-07T19:19:38.248Z,98805.88
2018-12-07T19:22:04.662Z,98813.64
2018-12-07T19:24:30.798Z,98808.19
2018-12-07T19:26:57.074Z,98802.08
2018-12-07T19:29:23.434Z,98810.41
2018-12-07T19:31:49.648Z,98818.83
2018-12-07T19:34:16.057Z,98801.25
2018-12-07T19:36:42.360Z,98808.66
2018-12-07T19:39:08.700Z,98818.20
2018-12-07T19:41:34.973Z,98793.55
2018-12-07T19:44:01.293Z,98799.55
2018-12-07T19:46:27.445Z,98788.70
2018-12-07T19:48:53.524Z,98784.07
2018-12-07T19:51:19.778Z,98780.25
2018-12-07T19:53:45.935Z,98772.78
2018-12-07T19:56:12.047Z,98769.76
2018-12-07T19:58:38.402Z,98768.76
2018-12-07T20:01:04.696Z,98759.97
2018-12-07T20:03:30.887Z,98755.34
2018-12-07T20:05:56.901Z,98760.47
2018-12-07T20:08:23.051Z,98752.53
2018-12-07T20:10:49.133Z,98752.80
2018-12-07T20:13:15.295Z,98753.23
2018-12-07T20:15:41.839Z,98756.64
2018-12-07T20:18:08.134Z,98754.39
2018-12-07T20:20:34.163Z,98750.41
2018-12-07T20:23:00.319Z,98762.72
2018-12-07T20:25:26.646Z,98759.78
2018-12-07T20:27:52.890Z,98758.91
2018-12-07T20:30:19.126Z,98757.77
2018-12-07T20:32:45.221Z,98763.40
2018-12-07T20:35:11.212Z,98778.72
2018-12-07T20:37:37.452Z,98770.73
2018-12-07T20:40:03.736Z,98781.75
2018-12-07T20:42:29.870Z,98781.94
2018-12-07T20:44:56.306Z,98786.52
2018-12-07T20:47:24.967Z,98777.72
2018-12-07T20:49:50.917Z,98773.98
2018-12-07T20:52:17.458Z,98776.55
2018-12-07T20:54:43.684Z,98789.41
2018-12-07T20:57:09.910Z,98808.42
2018-12-07T20:59:36.346Z,98827.23
2018-12-07T21:02:02.758Z,98911.16
2018-12-07T21:04:31.913Z,98934.86
2018-12-07T21:16:48.274Z,98962.83
2018-12-07T21:19:14.372Z,98948.69
2018-12-07T21:21:40.866Z,98938.98
2018-12-07T21:24:07.446Z,98944.98
2018-12-07T21:26:33.689Z,98978.39
2018-12-07T21:28:59.927Z,98993.96
2018-12-07T21:31:26.024Z,98964.18
2018-12-07T21:33:56.277Z,98968.67
2018-12-07T21:36:34.251Z,98963.87
2018-12-07T21:39:00.704Z,98986.47
2018-12-07T21:41:26.927Z,99022.23
2018-12-07T21:43:53.362Z,99014.47
2018-12-07T21:46:19.670Z,99014.07
2018-12-07T21:48:45.962Z,99023.97
2018-12-07T21:51:16.178Z,99029.56
2018-12-07T21:53:42.273Z,99042.91
2018-12-07T21:56:08.482Z,99045.98
2018-12-07T21:58:34.883Z,99067.06
2018-12-07T22:01:01.037Z,99052.34
2018-12-07T22:03:27.394Z,99052.89
2018-12-07T22:05:53.759Z,99056.48
2018-12-07T22:08:20.281Z,99072.02
2018-12-07T22:10:46.569Z,99100.95
2018-12-07T22:13:12.948Z,99109.13
2018-12-07T22:15:39.322Z,99088.55
2018-12-07T22:18:05.506Z,99110.55
2018-12-07T22:20:31.679Z,99118.27
2018-12-07T22:22:57.963Z,99123.02
2018-12-07T22:25:24.406Z,99139.52
2018-12-07T22:27:50.651Z,99148.27
2018-12-07T22:30:18.287Z,99149.33
2018-12-07T22:32:44.925Z,99142.03
2018-12-07T22:35:11.094Z,99167.23
2018-12-07T22:37:37.212Z,99171.17
2018-12-07T22:40:05.254Z,99178.14
2018-12-07T22:42:31.455Z,99175.14
2018-12-07T22:44:57.617Z,99180.98
2018-12-07T22:47:23.869Z,99189.23
2018-12-07T22:49:49.945Z,99200.50
2018-12-07T22:52:15.960Z,99194.80
2018-12-07T22:54:41.954Z,99212.17
2018-12-07T22:57:07.955Z,99197.50
2018-12-07T22:59:33.932Z,99213.80
2018-12-07T23:01:59.976Z,99211.06
2018-12-07T23:04:26.068Z,99212.56
2018-12-07T23:06:52.358Z,99224.69
2018-12-07T23:09:18.380Z,99210.33
2018-12-07T23:11:44.356Z,99225.09
2018-12-07T23:14:10.332Z,99228.73
2018-12-07T23:16:36.369Z,99219.42
2018-12-07T23:19:02.295Z,99219.62
2018-12-07T23:21:28.377Z,99223.30
2018-12-07T23:23:54.436Z,99225.57
2018-12-07T23:26:20.520Z,99238.14
2018-12-07T23:28:46.498Z,99248.50
2018-12-07T23:31:12.483Z,99252.83
2018-12-07T23:33:38.501Z,99247.94
2018-12-07T23:36:04.534Z,99253.77
2018-12-07T23:38:30.518Z,99267.59
2018-12-07T23:40:56.558Z,99248.97
2018-12-07T23:43:22.589Z,99252.45
2018-12-07T23:45:48.695Z,99285.78
2018-12-07T23:48:14.701Z,99268.11
2018-12-07T23:50:40.717Z,99284.37
2018-12-07T23:53:06.717Z,99285.16
2018-12-07T23:55:32.925Z,99281.71
2018-12-07T23:57:58.986Z,99295.31
